Time;durP1;ratioP1;P1;durP2;ratioP2;P2;SDS_P1;SDS_P2;PMS_P1;PMS_P2;Temp;Humidity;BMP_temperature;BMP_pressure;BME280_temperature;BME280_humidity;BME280_pressure;Samples;Min_cycle;Max_cycle;Signal;HPM_P1;HPM_P2
2021/10/06 00:00:51;;;;;;;5.77;3.67;;;;;;;9.76;91.19;100637.16;2115688;28;20027;-63
2021/10/06 00:01:51;;;;;;;5.57;2.77;;;;;;;9.77;91.87;100642.31;2115318;28;20039;-64
2021/10/06 00:02:51;;;;;;;4.83;3.70;;;;;;;9.80;90.91;100633.50;2115686;28;20031;-65
2021/10/06 00:03:52;;;;;;;6.03;3.40;;;;;;;9.85;91.26;100635.94;2115621;28;20024;-64
2021/10/06 00:04:52;;;;;;;9.43;3.60;;;;;;;9.89;90.72;100638.31;2114863;28;20023;-65
2021/10/06 00:05:53;;;;;;;4.50;3.30;;;;;;;9.90;90.93;100633.97;2115178;28;20096;-64
2021/10/06 00:06:53;;;;;;;7.20;3.77;;;;;;;9.91;90.86;100633.03;2115565;28;20473;-63
2021/10/06 00:07:53;;;;;;;7.07;3.37;;;;;;;9.95;90.16;100634.59;2115424;28;20042;-64
2021/10/06 00:08:54;;;;;;;4.17;3.20;;;;;;;9.97;90.12;100635.41;2115472;28;20418;-65
2021/10/06 00:09:54;;;;;;;7.27;3.10;;;;;;;9.98;90.52;100642.28;2115626;28;20063;-64
2021/10/06 00:10:54;;;;;;;4.40;3.80;;;;;;;9.96;90.50;100633.69;2115518;28;20035;-64
2021/10/06 00:11:55;;;;;;;6.87;3.90;;;;;;;9.92;90.49;100625.16;2115296;28;20046;-63
2021/10/06 00:12:55;;;;;;;7.72;3.67;;;;;;;9.93;90.56;100628.63;2115392;28;20035;-65
2021/10/06 00:13:56;;;;;;;6.83;3.70;;;;;;;9.97;90.55;100635.41;2115538;28;20024;-64
2021/10/06 00:14:56;;;;;;;7.30;4.13;;;;;;;9.97;90.23;100630.19;2114807;28;20495;-63
2021/10/06 00:15:56;;;;;;;6.40;3.60;;;;;;;9.98;90.35;100634.47;2114600;28;20471;-65
2021/10/06 00:16:57;;;;;;;6.00;2.93;;;;;;;9.98;90.74;100624.03;2114859;28;20019;-65
2021/10/06 00:17:57;;;;;;;6.55;3.83;;;;;;;10.01;90.42;100626.53;2114546;28;20820;-63
2021/10/06 00:18:58;;;;;;;7.30;3.60;;;;;;;9.98;90.02;100634.47;2115293;27;20077;-65
2021/10/06 00:19:59;;;;;;;8.07;3.97;;;;;;;9.96;90.51;100633.69;2115226;28;20106;-63
2021/10/06 00:20:59;;;;;;;5.43;3.90;;;;;;;9.97;90.30;100643.22;2115585;28;20050;-63
2021/10/06 00:21:59;;;;;;;15.53;5.07;;;;;;;9.97;90.55;100635.41;2115367;28;20051;-65
2021/10/06 00:22:59;;;;;;;9.90;3.93;;;;;;;9.93;90.96;100631.22;2115144;28;20024;-65
2021/10/06 00:24:00;;;;;;;7.87;4.67;;;;;;;9.87;90.55;100628.88;2115240;28;20039;-66
2021/10/06 00:25:00;;;;;;;8.23;3.43;;;;;;;9.88;90.41;100635.78;2115414;28;20034;-65
2021/10/06 00:26:03;;;;;;;9.30;3.90;;;;;;;9.92;90.05;100637.31;2115382;28;20446;-66
2021/10/06 00:27:04;;;;;;;5.65;4.07;;;;;;;9.86;90.74;100628.00;2115519;28;20480;-65
2021/10/06 00:28:04;;;;;;;8.70;3.77;;;;;;;9.82;90.78;100639.47;2114818;28;20035;-64
2021/10/06 00:29:06;;;;;;;13.10;4.32;;;;;;;9.81;90.21;100634.38;2114919;28;20035;-64
2021/10/06 00:30:06;;;;;;;;;;;;;;;9.79;91.11;100640.47;2116044;28;20460;-64
2021/10/06 00:31:06;;;;;;;7.25;3.55;;;;;;;9.75;90.89;100640.69;2114912;28;19922;-63
2021/10/06 00:32:06;;;;;;;7.37;3.70;;;;;;;9.74;90.90;100642.44;2114814;28;20019;-63
2021/10/06 00:33:07;;;;;;;7.53;4.20;;;;;;;9.77;90.98;100638.84;2115084;28;20100;-65
2021/10/06 00:34:07;;;;;;;10.17;4.20;;;;;;;9.79;90.85;100632.66;2115267;28;20498;-65
2021/10/06 00:35:08;;;;;;;6.70;3.70;;;;;;;9.78;90.58;100636.16;2115242;28;20388;-64
2021/10/06 00:36:10;;;;;;;6.15;3.33;;;;;;;9.75;90.56;100640.69;2115069;28;20068;-65
2021/10/06 00:37:10;;;;;;;9.35;4.25;;;;;;;9.75;90.69;100641.50;2115302;28;20418;-63
2021/10/06 00:38:10;;;;;;;7.63;3.60;;;;;;;9.75;90.43;100649.31;2115341;28;20027;-64
2021/10/06 00:39:11;;;;;;;12.73;4.90;;;;;;;9.71;90.47;100639.13;2115285;28;20028;-65
2021/10/06 00:40:11;;;;;;;4.03;3.63;;;;;;;9.70;90.61;100642.63;2115268;28;20092;-64
2021/10/06 00:41:11;;;;;;;8.80;3.83;;;;;;;9.67;90.98;100643.59;2115225;28;20027;-65
2021/10/06 00:42:12;;;;;;;7.23;3.60;;;;;;;9.68;90.70;100650.50;2115036;28;20146;-65
2021/10/06 00:43:12;;;;;;;6.57;3.60;;;;;;;9.67;90.61;100638.38;2114425;28;20049;-66
2021/10/06 00:44:21;;;;;;;7.40;3.60;;;;;;;9.66;91.18;100641.91;2114463;28;20027;-65
2021/10/06 00:45:21;;;;;;;8.07;3.17;;;;;;;9.65;91.34;100646.25;2114954;28;20373;-64
2021/10/06 00:46:21;;;;;;;7.57;3.50;;;;;;;9.60;91.10;100637.78;2115063;28;20034;-66
2021/10/06 00:47:22;;;;;;;7.53;3.53;;;;;;;9.60;91.06;100636.94;2115288;28;20381;-64
2021/10/06 00:48:22;;;;;;;6.57;3.63;;;;;;;9.58;91.41;100638.78;2114498;28;20030;-64
2021/10/06 00:49:22;;;;;;;9.17;3.77;;;;;;;9.57;91.50;100645.72;2114671;28;20557;-66
2021/10/06 00:50:22;;;;;;;8.57;4.10;;;;;;;9.57;91.45;100647.47;2115053;28;20027;-64
2021/10/06 00:51:23;;;;;;;5.50;4.07;;;;;;;9.60;90.88;100642.16;2114884;28;20144;-65
2021/10/06 00:52:23;;;;;;;6.73;3.60;;;;;;;9.61;90.95;100638.66;2114950;28;20029;-65
2021/10/06 00:53:25;;;;;;;6.43;3.50;;;;;;;9.58;91.39;100646.59;2114795;28;20020;-64
2021/10/06 00:54:26;;;;;;;6.15;4.00;;;;;;;9.57;91.52;100642.28;2115048;28;20480;-64
2021/10/06 00:55:26;;;;;;;5.13;3.60;;;;;;;9.59;90.95;100651.75;2115146;28;20020;-65
2021/10/06 00:56:26;;;;;;;6.07;3.77;;;;;;;9.62;90.67;100641.16;2115239;28;20034;-64
2021/10/06 00:57:26;;;;;;;10.13;4.20;;;;;;;9.64;90.85;100646.31;2115094;28;20095;-64
2021/10/06 00:58:28;;;;;;;7.67;4.00;;;;;;;9.64;91.13;100643.72;2115282;28;20473;-64
2021/10/06 00:59:28;;;;;;;5.85;3.60;;;;;;;9.60;91.08;100648.22;2115071;28;20024;-64
2021/10/06 01:00:28;;;;;;;8.47;4.30;;;;;;;9.60;91.01;100647.34;2115150;28;20578;-64
2021/10/06 01:01:29;;;;;;;8.50;4.50;;;;;;;9.61;90.89;100649.06;2115161;28;20069;-65
2021/10/06 01:02:29;;;;;;;7.03;3.93;;;;;;;9.61;90.82;100655.13;2115121;28;20281;-64
2021/10/06 01:03:29;;;;;;;10.70;3.13;;;;;;;9.63;90.57;100647.25;2115353;28;20056;-65
2021/10/06 01:04:32;;;;;;;6.77;3.17;;;;;;;9.59;90.86;100654.34;2115339;28;20072;-64
2021/10/06 01:05:32;;;;;;;8.18;3.65;;;;;;;9.57;90.81;100648.34;2115213;28;20042;-66
2021/10/06 01:06:33;;;;;;;6.43;3.47;;;;;;;9.58;91.23;100652.63;2114518;28;20070;-65
2021/10/06 01:07:34;;;;;;;8.55;4.20;;;;;;;9.57;91.48;100663.13;2114493;28;20023;-66
2021/10/06 01:08:35;;;;;;;6.35;4.20;;;;;;;9.57;90.96;100657.91;2114366;28;20492;-63
2021/10/06 01:09:36;;;;;;;11.10;4.15;;;;;;;9.52;90.87;100655.50;2114542;28;20081;-64
2021/10/06 01:10:37;;;;;;;8.27;4.65;;;;;;;9.51;91.29;100659.84;2115054;28;20644;-65
2021/10/06 01:11:37;;;;;;;9.52;4.10;;;;;;;9.52;90.87;100660.72;2115072;28;20055;-64
2021/10/06 01:12:39;;;;;;;7.10;3.55;;;;;;;9.51;91.58;100659.84;2115073;28;20019;-65
2021/10/06 01:13:40;;;;;;;4.75;3.85;;;;;;;9.51;90.99;100667.69;2114781;28;20028;-64
2021/10/06 01:14:40;;;;;;;6.53;4.20;;;;;;;9.51;91.18;100659.84;2114895;28;20039;-64
2021/10/06 01:15:41;;;;;;;6.33;4.67;;;;;;;9.55;90.71;100665.81;2114320;28;20027;-65
2021/10/06 01:16:42;;;;;;;9.90;5.70;;;;;;;9.56;90.64;100666.63;2114315;28;20281;-64
2021/10/06 01:17:42;;;;;;;8.57;3.37;;;;;;;9.57;91.05;100661.38;2114666;28;20018;-63
2021/10/06 01:18:42;;;;;;;12.70;4.20;;;;;;;9.58;90.77;100664.84;2114890;28;20019;-65
2021/10/06 01:19:42;;;;;;;5.17;3.60;;;;;;;9.59;91.07;100656.09;2114631;28;20065;-65
2021/10/06 01:20:43;;;;;;;10.27;5.07;;;;;;;9.58;90.90;100660.44;2114835;28;20061;-65
2021/10/06 01:21:43;;;;;;;8.17;4.50;;;;;;;9.61;90.58;100664.72;2114924;28;20099;-66
2021/10/06 01:22:44;;;;;;;7.23;3.77;;;;;;;9.64;90.37;100672.38;2115115;28;20040;-63
2021/10/06 01:23:46;;;;;;;9.77;4.13;;;;;;;9.65;90.69;100666.28;2114892;28;20385;-65
2021/10/06 01:24:46;;;;;;;10.55;4.53;;;;;;;9.71;90.03;100673.00;2114899;28;20042;-65
2021/10/06 01:25:47;;;;;;;5.10;3.67;;;;;;;9.71;90.28;100670.38;2115234;28;20098;-64
2021/10/06 01:26:47;;;;;;;4.70;3.40;;;;;;;9.71;90.26;100671.22;2115078;28;20480;-65
2021/10/06 01:27:48;;;;;;;9.02;3.95;;;;;;;9.69;90.23;100667.84;2115070;28;20077;-64
2021/10/06 01:28:51;;;;;;;10.40;4.73;;;;;;;9.69;90.35;100672.19;2114936;28;20138;-64
2021/10/06 01:29:51;;;;;;;6.80;3.78;;;;;;;9.67;90.51;100674.88;2114353;28;20065;-65
2021/10/06 01:30:51;;;;;;;7.73;3.47;;;;;;;9.61;90.80;100668.16;2114513;28;20065;-65
2021/10/06 01:31:52;;;;;;;6.27;3.70;;;;;;;9.58;90.51;100675.25;2115089;28;20020;-66
2021/10/06 01:32:52;;;;;;;8.15;4.03;;;;;;;9.57;90.70;100669.19;2114888;28;20114;-67
2021/10/06 01:33:53;;;;;;;6.57;3.77;;;;;;;9.56;90.77;100669.25;2108196;28;20481;-66
2021/10/06 01:34:58;;;;;;;7.05;3.75;;;;;;;9.56;90.67;100679.66;2106057;28;20016;-65
2021/10/06 01:35:58;;;;;;;11.35;3.08;;;;;;;9.55;90.67;100680.59;2106073;28;20555;-66
2021/10/06 01:36:58;;;;;;;8.23;3.53;;;;;;;9.55;91.17;100671.03;2106618;28;20077;-67
2021/10/06 01:37:59;;;;;;;11.57;4.10;;;;;;;9.59;90.80;100671.72;2106649;28;20041;-63
2021/10/06 01:38:59;;;;;;;6.80;3.60;;;;;;;9.61;90.65;100675.13;2105885;28;20388;-65
2021/10/06 01:40:02;;;;;;;5.73;3.70;;;;;;;9.63;90.72;100681.13;2105882;28;20505;-64
2021/10/06 01:41:04;;;;;;;7.43;5.28;;;;;;;9.64;90.30;100678.44;2106478;28;20020;-65
2021/10/06 01:42:04;;;;;;;;;;;;;;;9.67;90.56;100680.06;2107189;28;20054;-64
2021/10/06 01:43:04;;;;;;;6.47;3.47;;;;;;;9.67;90.21;100674.88;2105882;28;19919;-64
2021/10/06 01:44:04;;;;;;;5.57;3.80;;;;;;;9.68;90.12;100676.53;2105865;28;20056;-65
2021/10/06 01:45:05;;;;;;;15.57;6.20;;;;;;;9.73;89.70;100682.44;2106719;28;20038;-66
2021/10/06 01:46:05;;;;;;;12.90;4.35;;;;;;;9.75;90.10;100675.38;2105970;28;20035;-65
2021/10/06 01:47:06;;;;;;;5.90;3.30;;;;;;;9.78;89.80;100680.47;2097669;28;20036;-66
2021/10/06 01:48:09;;;;;;;7.03;3.83;;;;;;;9.77;89.95;100681.41;2105908;28;20415;-66
2021/10/06 01:49:10;;;;;;;9.27;3.55;;;;;;;9.80;89.78;100683.03;2106582;28;20096;-64
2021/10/06 01:50:10;;;;;;;7.10;3.42;;;;;;;9.82;89.06;100685.56;2106553;28;20427;-65
2021/10/06 01:51:10;;;;;;;8.57;4.40;;;;;;;9.81;89.30;100679.50;2106433;28;20028;-64
2021/10/06 01:52:11;;;;;;;10.80;5.07;;;;;;;9.83;89.76;100682.03;2106325;28;20141;-64
2021/10/06 01:53:13;;;;;;;15.13;4.10;;;;;;;9.83;89.61;100674.22;2105542;28;20118;-63
2021/10/06 01:54:14;;;;;;;5.65;3.70;;;;;;;9.87;89.46;100686.22;2105789;28;20122;-66
2021/10/06 01:55:14;;;;;;;8.70;3.90;;;;;;;9.87;89.53;100676.66;2106464;28;20054;-65
2021/10/06 01:56:15;;;;;;;4.83;2.53;;;;;;;9.87;89.14;100681.00;2106110;28;20027;-65
2021/10/06 01:57:15;;;;;;;8.07;2.87;;;;;;;9.87;88.94;100681.00;2106265;28;20078;-68
2021/10/06 01:58:18;;;;;;;4.30;3.53;;;;;;;9.90;89.15;100686.09;2106089;28;20026;-65
2021/10/06 01:59:19;;;;;;;11.57;2.63;;;;;;;9.91;88.57;100682.56;2106150;28;20020;-64
2021/10/06 02:00:19;;;;;;;5.88;3.60;;;;;;;9.93;88.89;100678.16;2106209;28;20020;-67
2021/10/06 02:01:20;;;;;;;8.87;3.53;;;;;;;9.92;88.89;100685.13;2106083;28;20028;-65
2021/10/06 02:02:20;;;;;;;5.43;4.20;;;;;;;9.92;88.75;100679.03;2106152;28;20409;-65
2021/10/06 02:03:20;;;;;;;8.53;3.63;;;;;;;9.92;88.83;100682.50;2106324;28;20031;-65
2021/10/06 02:04:20;;;;;;;7.00;2.53;;;;;;;9.96;88.87;100687.59;2106147;28;20055;-69
2021/10/06 02:05:21;;;;;;;5.77;2.20;;;;;;;9.95;89.13;100684.13;2106234;28;20042;-65
2021/10/06 02:06:22;;;;;;;10.60;3.90;;;;;;;9.93;88.51;100691.19;2106164;28;20108;-65
2021/10/06 02:07:22;;;;;;;8.18;3.67;;;;;;;9.95;88.84;100685.91;2105430;28;20015;-65
2021/10/06 02:08:23;;;;;;;4.83;3.67;;;;;;;9.96;88.66;100678.00;2105707;28;20024;-66
2021/10/06 02:09:23;;;;;;;10.27;5.13;;;;;;;9.98;87.91;100678.78;2105659;28;20512;-67
2021/10/06 02:10:23;;;;;;;15.07;4.23;;;;;;;9.99;88.37;100685.69;2105696;28;20335;-66
2021/10/06 02:11:24;;;;;;;6.93;3.23;;;;;;;10.00;87.58;100681.34;2106151;28;20050;-65
2021/10/06 02:12:24;;;;;;;4.30;3.90;;;;;;;10.01;88.30;100691.69;2106451;28;20020;-65
2021/10/06 02:13:24;;;;;;;6.93;4.20;;;;;;;10.03;88.28;100683.81;2106219;28;20013;-65
2021/10/06 02:14:24;;;;;;;9.80;3.53;;;;;;;10.04;88.43;100696.78;2106358;28;20468;-66
2021/10/06 02:15:25;;;;;;;9.00;2.90;;;;;;;10.02;88.16;100690.78;2106061;28;20081;-65
2021/10/06 02:16:26;;;;;;;9.25;4.32;;;;;;;10.05;87.97;100689.78;2106347;28;20032;-66
2021/10/06 02:17:26;;;;;;;5.80;2.87;;;;;;;10.04;88.11;100683.75;2106096;28;20055;-66
2021/10/06 02:18:26;;;;;;;10.33;4.07;;;;;;;10.04;88.03;100688.09;2106297;28;20020;-65
2021/10/06 02:19:26;;;;;;;6.13;4.10;;;;;;;10.04;88.20;100677.69;2106176;28;20048;-65
2021/10/06 02:20:27;;;;;;;5.10;3.77;;;;;;;10.04;87.51;100693.31;2105822;28;20151;-65
2021/10/06 02:21:28;;;;;;;3.80;3.42;;;;;;;10.04;87.64;100681.16;2105488;28;20020;-65
2021/10/06 02:22:28;;;;;;;4.17;3.40;;;;;;;10.06;88.04;100675.84;2105749;28;20020;-65
2021/10/06 02:23:28;;;;;;;6.77;3.67;;;;;;;10.07;87.26;100677.56;2105574;28;20045;-66
2021/10/06 02:24:29;;;;;;;6.63;3.97;;;;;;;10.05;88.26;100669.81;2105801;28;20028;-65
2021/10/06 02:25:29;;;;;;;9.47;2.77;;;;;;;10.01;87.95;100678.66;2106452;28;20511;-65
2021/10/06 02:26:30;;;;;;;10.50;3.87;;;;;;;10.02;88.18;100679.50;2106591;28;20035;-63
2021/10/06 02:27:30;;;;;;;9.85;2.88;;;;;;;10.04;87.79;100669.84;2106416;28;20032;-65
2021/10/06 02:28:30;;;;;;;6.33;2.60;;;;;;;10.06;87.95;100681.06;2106577;28;20097;-65
2021/10/06 02:29:31;;;;;;;10.60;3.30;;;;;;;10.08;87.66;100667.97;2106547;28;20036;-64
2021/10/06 02:30:31;;;;;;;9.00;3.20;;;;;;;10.10;87.55;100667.00;2105864;28;20466;-65
2021/10/06 02:31:32;;;;;;;4.93;3.63;;;;;;;10.11;86.70;100671.28;2097392;28;20052;-65
2021/10/06 02:32:33;;;;;;;9.43;3.77;;;;;;;10.12;86.88;100672.97;2105910;28;20027;-65
2021/10/06 02:33:33;;;;;;;6.38;3.30;;;;;;;10.13;87.29;100676.44;2106275;28;20305;-65
2021/10/06 02:34:33;;;;;;;7.53;3.23;;;;;;;10.12;87.90;100664.31;2106561;28;20078;-66
2021/10/06 02:35:33;;;;;;;4.63;3.73;;;;;;;10.11;87.31;100671.28;2105859;28;20061;-65
2021/10/06 02:36:34;;;;;;;10.17;3.40;;;;;;;10.10;87.38;100671.34;2105916;28;20050;-67
2021/10/06 02:37:35;;;;;;;8.83;3.93;;;;;;;10.10;87.83;100663.53;2106154;28;20027;-65
2021/10/06 02:38:35;;;;;;;6.32;3.83;;;;;;;10.09;87.38;100667.91;2105547;28;20028;-65
2021/10/06 02:39:36;;;;;;;7.17;3.90;;;;;;;10.10;87.22;100661.78;2105705;28;20048;-65
2021/10/06 02:40:36;;;;;;;6.00;3.67;;;;;;;10.11;87.01;100660.88;2105931;28;20034;-65
2021/10/06 02:41:36;;;;;;;6.13;3.50;;;;;;;10.13;86.96;100666.03;2107099;28;20020;-64
2021/10/06 02:42:38;;;;;;;6.27;3.53;;;;;;;10.12;87.02;100653.88;2107815;28;20066;-65
2021/10/06 02:43:38;;;;;;;7.50;3.40;;;;;;;10.14;86.63;100665.09;2107777;28;20537;-65
2021/10/06 02:44:38;;;;;;;5.30;3.30;;;;;;;10.13;87.34;100660.81;2107711;28;20069;-65
2021/10/06 02:45:39;;;;;;;7.47;3.90;;;;;;;10.15;86.69;100664.16;2107709;28;20023;-65
2021/10/06 02:46:39;;;;;;;5.60;4.00;;;;;;;10.17;86.52;100662.38;2107121;28;20012;-66
2021/10/06 02:47:40;;;;;;;6.27;2.80;;;;;;;10.18;86.65;100679.69;2107305;28;20020;-64
2021/10/06 02:48:40;;;;;;;6.70;3.85;;;;;;;10.18;86.25;100661.44;2107643;28;20103;-65
2021/10/06 02:49:40;;;;;;;11.20;3.93;;;;;;;10.19;86.47;100663.13;2107749;28;20415;-65
2021/10/06 02:50:41;;;;;;;8.87;3.50;;;;;;;10.20;86.19;100667.44;2107605;28;20020;-65
2021/10/06 02:51:41;;;;;;;8.87;3.80;;;;;;;10.20;86.26;100661.38;2106946;28;20023;-67
2021/10/06 02:52:41;;;;;;;8.10;3.90;;;;;;;10.19;86.18;100660.50;2106991;28;20539;-64
2021/10/06 02:53:42;;;;;;;8.13;3.70;;;;;;;10.20;85.45;100662.22;2107705;28;20428;-64
2021/10/06 02:54:42;;;;;;;6.10;3.63;;;;;;;10.22;86.33;100660.38;2107104;28;20032;-64
2021/10/06 02:55:42;;;;;;;7.27;3.90;;;;;;;10.22;85.92;100665.59;2107006;28;20035;-65
2021/10/06 02:56:43;;;;;;;12.93;4.37;;;;;;;10.22;85.63;100665.59;2107856;28;20491;-63
2021/10/06 02:57:43;;;;;;;6.07;3.23;;;;;;;10.22;85.99;100659.53;2107733;28;20028;-65
2021/10/06 02:58:43;;;;;;;7.33;3.73;;;;;;;10.23;85.23;100667.28;2107762;28;20031;-66
2021/10/06 02:59:44;;;;;;;10.07;4.27;;;;;;;10.23;84.80;100664.69;2106724;28;20078;-67
2021/10/06 03:00:44;;;;;;;10.07;4.67;;;;;;;10.23;85.37;100667.28;2107020;28;20023;-66
2021/10/06 03:01:44;;;;;;;6.17;3.73;;;;;;;10.22;85.50;100667.34;2106645;28;20055;-65
2021/10/06 03:02:44;;;;;;;5.30;3.10;;;;;;;10.21;84.98;100668.28;2106669;28;20023;-64
2021/10/06 03:03:45;;;;;;;8.37;4.33;;;;;;;10.21;84.45;100666.53;2106795;28;20035;-67
2021/10/06 03:04:45;;;;;;;6.70;3.57;;;;;;;10.26;84.90;100672.38;2106818;28;20409;-67
2021/10/06 03:05:45;;;;;;;3.63;2.83;;;;;;;10.25;84.49;100675.91;2106616;28;20818;-65
2021/10/06 03:06:46;;;;;;;4.73;3.20;;;;;;;10.26;84.31;100682.81;2107228;28;20051;-66
2021/10/06 03:07:46;;;;;;;5.87;1.70;;;;;;;10.26;85.10;100677.59;2106832;28;20039;-65
2021/10/06 03:08:46;;;;;;;4.93;2.93;;;;;;;10.25;85.54;100672.44;2106979;28;20077;-67
2021/10/06 03:09:47;;;;;;;5.13;2.60;;;;;;;10.25;85.19;100672.44;2107247;28;20063;-66
2021/10/06 03:10:47;;;;;;;4.70;2.33;;;;;;;10.24;85.48;100683.78;2107552;28;20024;-65
2021/10/06 03:11:47;;;;;;;4.57;2.93;;;;;;;10.23;85.63;100682.94;2107268;28;20035;-65
2021/10/06 03:12:48;;;;;;;4.38;3.50;;;;;;;10.23;85.46;100679.50;2107164;28;20031;-66
2021/10/06 03:13:48;;;;;;;5.03;2.87;;;;;;;10.22;85.40;100676.03;2106561;28;20681;-66
2021/10/06 03:14:48;;;;;;;4.80;3.27;;;;;;;10.24;85.68;100676.84;2098098;28;20016;-68
2021/10/06 03:15:49;;;;;;;7.40;2.95;;;;;;;10.22;85.39;100675.19;2106591;28;20093;-67
2021/10/06 03:16:49;;;;;;;4.43;2.70;;;;;;;10.21;84.95;100679.56;2107195;28;20031;-65
2021/10/06 03:17:49;;;;;;;6.27;3.57;;;;;;;10.21;84.98;100674.34;2107115;28;20024;-64
2021/10/06 03:18:49;;;;;;;5.97;2.83;;;;;;;10.20;84.79;100677.88;2107117;28;20209;-66
2021/10/06 03:19:50;;;;;;;8.70;2.57;;;;;;;10.21;86.11;100681.31;2107083;28;20059;-64
2021/10/06 03:20:50;;;;;;;9.10;2.00;;;;;;;10.19;85.34;100686.59;2107524;28;20089;-65
2021/10/06 03:21:51;;;;;;;6.90;2.55;;;;;;;10.18;85.46;100687.50;2107161;28;20081;-64
2021/10/06 03:22:51;;;;;;;6.53;2.35;;;;;;;10.17;85.44;100680.63;2107001;28;20019;-64
2021/10/06 03:23:51;;;;;;;8.03;2.07;;;;;;;10.16;85.76;100676.28;2107029;28;20025;-65
2021/10/06 03:24:52;;;;;;;5.20;2.47;;;;;;;10.14;86.76;100685.97;2107104;28;20464;-66
2021/10/06 03:25:52;;;;;;;5.25;1.95;;;;;;;10.10;87.32;100689.59;2106953;28;20040;-66
2021/10/06 03:26:53;;;;;;;6.33;3.13;;;;;;;10.04;87.31;100677.69;2107021;28;20070;-67
2021/10/06 03:27:53;;;;;;;5.90;2.37;;;;;;;10.03;87.77;100687.25;2106236;28;20115;-65
2021/10/06 03:28:53;;;;;;;7.90;3.37;;;;;;;10.00;87.81;100690.00;2106792;28;20493;-66
2021/10/06 03:29:53;;;;;;;5.90;3.63;;;;;;;9.97;88.10;100697.09;2107251;28;20028;-66
2021/10/06 03:30:54;;;;;;;8.07;3.53;;;;;;;9.94;88.37;100692.00;2107308;28;20035;-65
2021/10/06 03:31:54;;;;;;;7.07;3.40;;;;;;;9.93;88.40;100696.41;2107424;28;20077;-65
2021/10/06 03:32:55;;;;;;;8.07;3.85;;;;;;;9.91;88.19;100693.00;2107020;28;20028;-66
2021/10/06 03:33:57;;;;;;;4.73;3.63;;;;;;;9.89;88.32;100687.84;2107264;28;20024;-65
2021/10/06 03:34:57;;;;;;;6.65;4.03;;;;;;;9.88;88.64;100690.50;2107045;28;20564;-66
2021/10/06 03:35:57;;;;;;;4.10;2.07;;;;;;;9.88;88.75;100688.75;2106413;28;20039;-66
2021/10/06 03:36:58;;;;;;;4.13;3.40;;;;;;;9.86;88.64;100695.78;2098228;28;20028;-65
2021/10/06 03:37:58;;;;;;;4.50;3.55;;;;;;;9.86;88.14;100695.78;2106456;28;20038;-64
2021/10/06 03:38:58;;;;;;;8.43;3.57;;;;;;;9.86;88.48;100700.16;2106932;28;20020;-65
2021/10/06 03:39:59;;;;;;;4.77;2.83;;;;;;;9.84;89.17;100707.19;2106973;28;20055;-68
2021/10/06 03:40:59;;;;;;;2.27;1.60;;;;;;;9.81;89.12;100699.53;2107061;28;20020;-64
2021/10/06 03:41:59;;;;;;;4.17;2.10;;;;;;;9.79;88.59;100700.41;2106886;28;20429;-64
2021/10/06 03:43:00;;;;;;;5.47;2.78;;;;;;;9.78;88.61;100708.28;2106840;28;20028;-66
2021/10/06 03:44:00;;;;;;;4.07;3.37;;;;;;;9.77;89.20;100707.47;2107010;28;20060;-65
2021/10/06 03:45:00;;;;;;;3.67;2.27;;;;;;;9.75;89.23;100711.03;2106895;28;20385;-64
2021/10/06 03:46:00;;;;;;;4.23;3.03;;;;;;;9.74;89.38;100712.78;2106285;28;20027;-65
2021/10/06 03:47:01;;;;;;;9.27;3.90;;;;;;;9.71;89.31;100712.91;2106376;28;20092;-66
2021/10/06 03:48:01;;;;;;;7.37;3.20;;;;;;;9.72;89.79;100713.78;2106991;28;20020;-64
2021/10/06 03:49:02;;;;;;;4.43;3.50;;;;;;;9.69;89.98;100706.94;2107080;28;20020;-65
2021/10/06 03:50:04;;;;;;;4.60;2.63;;;;;;;9.67;90.63;100719.16;2107392;28;20062;-64
2021/10/06 03:51:04;;;;;;;7.70;4.10;;;;;;;9.66;90.08;100715.69;2107052;28;20069;-67
2021/10/06 03:52:05;;;;;;;7.33;4.17;;;;;;;9.65;90.95;100707.97;2106537;28;20470;-65
2021/10/06 03:53:05;;;;;;;5.80;3.50;;;;;;;9.63;91.00;100707.16;2106616;28;20103;-65
2021/10/06 03:54:06;;;;;;;7.70;3.80;;;;;;;9.62;90.51;100723.72;2106834;28;20016;-65
2021/10/06 03:55:08;;;;;;;4.47;2.23;;;;;;;9.63;90.14;100709.78;2106135;28;20043;-66
2021/10/06 03:56:08;;;;;;;6.47;2.15;;;;;;;9.63;90.34;100709.78;2106193;28;20028;-65
2021/10/06 03:57:08;;;;;;;5.33;2.23;;;;;;;9.64;90.33;100709.72;2106272;28;20421;-64
2021/10/06 03:58:09;;;;;;;10.43;2.37;;;;;;;9.61;90.24;100712.44;2106299;28;20114;-65
2021/10/06 03:59:09;;;;;;;9.50;2.47;;;;;;;9.59;90.83;100711.66;2106104;28;20059;-66
2021/10/06 04:00:11;;;;;;;5.27;2.90;;;;;;;9.58;90.53;100714.34;2106154;28;20147;-66
2021/10/06 04:01:11;;;;;;;6.80;3.47;;;;;;;9.58;90.41;100703.91;2106703;28;20121;-64
2021/10/06 04:02:11;;;;;;;9.80;2.33;;;;;;;9.60;90.02;100715.09;2106091;28;20027;-65
2021/10/06 04:03:13;;;;;;;5.70;2.40;;;;;;;9.62;90.36;100718.50;2106154;28;20069;-65
2021/10/06 04:04:13;;;;;;;9.30;3.80;;;;;;;9.59;90.52;100709.06;2106011;28;20046;-66
2021/10/06 04:05:14;;;;;;;12.33;2.03;;;;;;;9.59;90.16;100718.63;2106803;28;20028;-64
2021/10/06 04:06:14;;;;;;;4.57;3.85;;;;;;;9.59;90.22;100713.41;2106999;28;20036;-66
2021/10/06 04:07:14;;;;;;;4.40;3.33;;;;;;;9.60;89.88;100712.50;2106628;28;20035;-65
2021/10/06 04:08:17;;;;;;;9.30;2.63;;;;;;;9.63;89.73;100714.97;2106087;28;20387;-67
2021/10/06 04:09:17;;;;;;;9.38;2.05;;;;;;;9.64;89.64;100719.28;2106089;28;20527;-66
2021/10/06 04:10:18;;;;;;;11.80;3.23;;;;;;;9.64;89.94;100717.53;2105853;28;20019;-67
2021/10/06 04:11:18;;;;;;;7.20;1.97;;;;;;;9.63;89.99;100714.97;2106808;28;20103;-68
2021/10/06 04:12:18;;;;;;;4.17;2.00;;;;;;;9.64;90.26;100719.28;2106656;28;20040;-67
2021/10/06 04:13:20;;;;;;;3.73;1.57;;;;;;;9.62;90.29;100714.13;2106690;28;20142;-65
2021/10/06 04:14:20;;;;;;;3.40;2.28;;;;;;;9.63;90.01;100720.19;2106553;28;20056;-67
2021/10/06 04:15:20;;;;;;;11.03;3.90;;;;;;;9.65;90.15;100715.78;2105992;28;20082;-65
2021/10/06 04:16:21;;;;;;;3.80;1.23;;;;;;;9.63;89.97;100720.19;2106369;28;20047;-66
2021/10/06 04:17:21;;;;;;;9.40;3.27;;;;;;;9.66;89.81;100722.69;2106564;28;20031;-63
2021/10/06 04:18:21;;;;;;;4.97;3.50;;;;;;;9.70;89.26;100731.22;2106626;28;20097;-66
2021/10/06 04:19:21;;;;;;;6.47;1.37;;;;;;;9.72;89.15;100724.19;2106871;28;20493;-66
2021/10/06 04:20:22;;;;;;;3.63;1.13;;;;;;;9.72;89.68;100722.41;2107126;28;20020;-66
2021/10/06 04:21:22;;;;;;;9.57;2.27;;;;;;;9.70;89.78;100720.78;2105842;28;20099;-67
2021/10/06 04:22:22;;;;;;;5.70;1.93;;;;;;;9.65;90.10;100723.59;2106010;28;20435;-67
2021/10/06 04:23:23;;;;;;;5.60;2.60;;;;;;;9.63;89.90;100728.00;2106692;28;20068;-66
2021/10/06 04:24:23;;;;;;;8.90;3.43;;;;;;;9.62;90.59;100723.72;2106699;28;20027;-65
2021/10/06 04:25:23;;;;;;;5.80;2.27;;;;;;;9.59;90.93;100729.03;2106531;28;20046;-66
2021/10/06 04:26:23;;;;;;;9.40;3.27;;;;;;;9.59;90.61;100729.03;2106636;28;20020;-66
2021/10/06 04:27:24;;;;;;;4.37;3.17;;;;;;;9.61;90.33;100735.06;2105727;28;20500;-65
2021/10/06 04:28:24;;;;;;;7.40;2.47;;;;;;;9.62;90.54;100731.53;2105893;28;20035;-67
2021/10/06 04:29:25;;;;;;;2.90;2.10;;;;;;;9.59;90.29;100734.25;2106462;28;20473;-64
2021/10/06 04:30:26;;;;;;;6.50;3.78;;;;;;;9.59;90.93;100739.47;2106745;28;20112;-64
2021/10/06 04:31:26;;;;;;;7.87;3.50;;;;;;;9.57;90.86;100736.91;2105893;28;20024;-65
2021/10/06 04:32:26;;;;;;;8.13;3.67;;;;;;;9.57;91.18;100743.88;2105925;28;20023;-64
2021/10/06 04:33:26;;;;;;;10.33;3.90;;;;;;;9.56;90.70;100743.03;2105782;28;20044;-65
2021/10/06 04:34:27;;;;;;;5.17;3.80;;;;;;;9.57;90.78;100741.28;2106233;28;20420;-66
2021/10/06 04:35:27;;;;;;;4.93;3.20;;;;;;;9.55;91.20;100735.28;2106614;28;20023;-66
2021/10/06 04:36:28;;;;;;;6.85;3.85;;;;;;;9.56;90.82;100734.38;2105924;28;20027;-67
2021/10/06 04:37:28;;;;;;;6.20;3.55;;;;;;;9.56;91.23;100740.44;2097647;28;20039;-65
2021/10/06 04:38:29;;;;;;;9.33;3.87;;;;;;;9.54;91.75;100742.25;2106052;28;20061;-66
2021/10/06 04:39:29;;;;;;;5.73;3.53;;;;;;;9.48;91.86;100738.13;2105826;28;20396;-66
2021/10/06 04:40:29;;;;;;;2.97;1.30;;;;;;;9.46;92.03;100746.91;2106102;28;20290;-65
2021/10/06 04:41:30;;;;;;;4.10;2.93;;;;;;;9.42;92.16;100727.97;2106411;28;20450;-64
2021/10/06 04:42:30;;;;;;;8.60;4.23;;;;;;;9.43;92.64;100745.28;2106710;28;20045;-64
2021/10/06 04:43:30;;;;;;;6.40;3.23;;;;;;;9.43;92.41;100744.41;2106434;28;20445;-64
2021/10/06 04:44:30;;;;;;;10.87;3.90;;;;;;;9.42;92.80;100746.19;2106404;28;20477;-64